createdAt,value
2023-10-06T00:00:41.699Z,9.68
2023-10-06T00:03:14.008Z,9.65
2023-10-06T00:05:42.531Z,9.64
2023-10-06T00:08:12.616Z,9.62
2023-10-06T00:10:45.890Z,9.57
2023-10-06T00:13:20.205Z,9.64
2023-10-06T00:15:51.062Z,9.65
2023-10-06T00:18:21.491Z,9.67
2023-10-06T00:20:51.027Z,9.67
2023-10-06T00:23:23.006Z,9.69
2023-10-06T00:25:56.281Z,9.64
2023-10-06T00:28:27.973Z,9.57
2023-10-06T00:30:58.046Z,9.58
2023-10-06T00:33:29.172Z,9.54
2023-10-06T00:35:58.257Z,9.56
2023-10-06T00:38:26.222Z,9.51
2023-10-06T00:40:56.318Z,9.50
2023-10-06T00:43:36.006Z,9.47
2023-10-06T00:46:08.212Z,9.46
2023-10-06T00:48:39.798Z,9.42
2023-10-06T00:51:13.550Z,9.43
2023-10-06T00:53:42.534Z,9.46
2023-10-06T00:56:16.430Z,9.42
2023-10-06T00:58:45.003Z,9.30
2023-10-06T01:01:14.414Z,9.27
2023-10-06T01:03:43.878Z,9.19
2023-10-06T01:06:16.451Z,9.18
2023-10-06T01:08:47.103Z,9.20
2023-10-06T01:11:18.672Z,9.15
2023-10-06T01:13:56.924Z,9.08
2023-10-06T01:16:31.160Z,9.05
2023-10-06T01:19:15.280Z,9.00
2023-10-06T01:21:46.705Z,8.92
2023-10-06T01:24:16.536Z,8.84
2023-10-06T01:26:44.808Z,8.77
2023-10-06T01:29:14.953Z,8.81
2023-10-06T01:31:43.269Z,8.74
2023-10-06T01:34:12.438Z,8.73
2023-10-06T01:36:40.376Z,8.78
2023-10-06T01:39:18.025Z,8.77
2023-10-06T01:41:49.977Z,8.68
2023-10-06T01:44:18.626Z,8.71
2023-10-06T01:46:54.296Z,8.67
2023-10-06T01:49:23.144Z,8.63
2023-10-06T01:52:02.924Z,8.64
2023-10-06T01:54:36.664Z,8.63
2023-10-06T01:57:08.269Z,8.61
2023-10-06T01:59:36.711Z,8.57
2023-10-06T02:02:08.909Z,8.57
2023-10-06T02:04:41.040Z,8.59
2023-10-06T02:07:11.772Z,8.60
2023-10-06T02:09:40.230Z,8.62
2023-10-06T02:12:10.220Z,8.63
2023-10-06T02:14:38.236Z,8.61
2023-10-06T02:17:07.627Z,8.62
2023-10-06T02:19:38.170Z,8.56
2023-10-06T02:22:07.645Z,8.50
2023-10-06T02:24:36.083Z,8.42
2023-10-06T02:27:05.527Z,8.35
2023-10-06T02:29:34.785Z,8.38
2023-10-06T02:32:07.797Z,8.35
2023-10-06T02:34:39.560Z,8.21
2023-10-06T02:37:08.861Z,8.05
2023-10-06T02:39:39.557Z,7.99
2023-10-06T02:42:10.941Z,7.98
2023-10-06T02:44:42.432Z,7.93
2023-10-06T02:47:12.170Z,7.89
2023-10-06T02:49:42.469Z,7.92
2023-10-06T02:52:17.039Z,7.89
2023-10-06T02:54:50.991Z,7.91
2023-10-06T02:57:21.631Z,7.87
2023-10-06T02:59:50.991Z,7.91
2023-10-06T03:02:18.918Z,7.92
2023-10-06T03:04:50.415Z,7.89
2023-10-06T03:07:20.130Z,7.86
2023-10-06T03:09:48.681Z,7.87
2023-10-06T03:12:21.486Z,7.86
2023-10-06T03:14:50.527Z,7.85
2023-10-06T03:17:22.120Z,7.81
2023-10-06T03:20:09.506Z,7.78
2023-10-06T03:22:41.642Z,7.78
2023-10-06T03:25:18.316Z,7.78
2023-10-06T03:27:49.770Z,7.74
2023-10-06T03:30:28.006Z,7.75
2023-10-06T03:32:55.996Z,7.73
2023-10-06T03:35:24.913Z,7.72
2023-10-06T03:38:09.162Z,7.75
2023-10-06T03:40:47.365Z,7.67
2023-10-06T03:43:15.565Z,7.61
2023-10-06T03:45:48.690Z,7.64
2023-10-06T03:48:16.730Z,7.63
2023-10-06T03:50:46.034Z,7.58
2023-10-06T03:53:15.982Z,7.61
2023-10-06T03:55:46.361Z,7.64
2023-10-06T03:58:16.565Z,7.60
2023-10-06T04:00:49.703Z,7.47
2023-10-06T04:03:19.533Z,7.37
2023-10-06T04:05:49.845Z,7.38
2023-10-06T04:08:20.458Z,7.45
2023-10-06T04:10:52.843Z,7.47
2023-10-06T04:13:21.458Z,7.47
2023-10-06T04:15:51.885Z,7.50
2023-10-06T04:18:23.239Z,7.47
2023-10-06T04:20:52.150Z,7.49
2023-10-06T04:23:24.038Z,7.47
2023-10-06T04:25:56.127Z,7.46
2023-10-06T04:28:26.642Z,7.49
2023-10-06T04:30:59.318Z,7.49
2023-10-06T04:33:29.718Z,7.47
2023-10-06T04:36:00.953Z,7.48
2023-10-06T04:38:30.760Z,7.43
2023-10-06T04:40:59.021Z,7.47
2023-10-06T04:43:27.582Z,7.43
2023-10-06T04:45:57.477Z,7.43
2023-10-06T04:48:25.536Z,7.43
2023-10-06T04:50:53.462Z,7.42
2023-10-06T04:53:22.153Z,7.38
2023-10-06T04:55:50.153Z,7.37
2023-10-06T04:58:19.891Z,7.36
2023-10-06T05:00:54.194Z,7.39
2023-10-06T05:03:23.697Z,7.37
2023-10-06T05:05:52.100Z,7.34
2023-10-06T05:08:20.263Z,7.34
2023-10-06T05:10:48.233Z,7.30
2023-10-06T05:13:17.665Z,7.28
2023-10-06T05:15:45.953Z,7.29
2023-10-06T05:18:17.127Z,7.30
2023-10-06T05:20:47.704Z,7.28
2023-10-06T05:23:16.798Z,7.19
2023-10-06T05:25:46.422Z,7.20
2023-10-06T05:28:18.139Z,7.13
2023-10-06T05:30:46.874Z,7.14
2023-10-06T05:33:15.766Z,7.17
2023-10-06T05:35:45.140Z,7.21
2023-10-06T05:38:15.426Z,7.24
2023-10-06T05:40:43.919Z,7.32
2023-10-06T05:43:13.190Z,7.33
2023-10-06T05:45:42.947Z,7.33
2023-10-06T05:48:12.463Z,7.30
2023-10-06T05:50:41.888Z,7.35
2023-10-06T05:53:13.873Z,7.40
2023-10-06T05:55:43.848Z,7.36
2023-10-06T05:58:15.665Z,7.35
2023-10-06T06:00:52.126Z,7.38
2023-10-06T06:03:21.866Z,7.40
2023-10-06T06:05:50.271Z,7.38
2023-10-06T06:08:18.169Z,7.42
2023-10-06T06:10:47.488Z,7.41
2023-10-06T06:13:15.906Z,7.42
2023-10-06T06:15:43.843Z,7.44
2023-10-06T06:18:11.735Z,7.48
2023-10-06T06:20:39.882Z,7.53
2023-10-06T06:23:10.128Z,7.56
2023-10-06T06:25:38.796Z,7.57
2023-10-06T06:28:09.332Z,7.60
2023-10-06T06:30:38.454Z,7.65
2023-10-06T06:33:06.556Z,7.71
2023-10-06T06:35:36.280Z,7.74
2023-10-06T06:38:06.177Z,7.80
2023-10-06T06:40:35.826Z,7.86
2023-10-06T06:43:03.688Z,8.02
2023-10-06T06:45:37.461Z,8.23
2023-10-06T06:48:11.050Z,8.49
2023-10-06T06:50:38.841Z,8.72
2023-10-06T06:53:06.669Z,8.91
2023-10-06T06:55:35.346Z,9.08
2023-10-06T06:58:07.649Z,9.23
2023-10-06T07:00:37.329Z,9.31
2023-10-06T07:03:05.819Z,9.44
2023-10-06T07:05:35.350Z,9.60
2023-10-06T07:08:05.236Z,9.85
2023-10-06T07:10:33.714Z,10.04
2023-10-06T07:13:02.133Z,10.21
2023-10-06T07:15:30.582Z,10.43
2023-10-06T07:18:00.732Z,10.71
2023-10-06T07:20:31.292Z,10.94
2023-10-06T07:23:02.732Z,11.09
2023-10-06T07:25:31.127Z,11.34
2023-10-06T07:28:00.573Z,11.49
2023-10-06T07:30:30.547Z,11.68
2023-10-06T07:33:00.355Z,11.87
2023-10-06T07:35:32.186Z,12.01
2023-10-06T07:38:00.586Z,12.22
2023-10-06T07:40:29.188Z,12.43
2023-10-06T07:42:58.022Z,12.63
2023-10-06T07:45:28.150Z,12.84
2023-10-06T07:47:56.258Z,13.04
2023-10-06T07:50:27.749Z,13.31
2023-10-06T07:52:55.814Z,13.58
2023-10-06T07:55:24.351Z,13.74
2023-10-06T07:57:52.548Z,13.94
2023-10-06T08:00:28.929Z,14.17
2023-10-06T08:02:57.202Z,14.39
2023-10-06T08:05:28.701Z,14.51
2023-10-06T08:07:59.843Z,14.69
2023-10-06T08:10:31.275Z,14.96
2023-10-06T08:13:02.834Z,15.14
2023-10-06T08:15:33.996Z,15.31
2023-10-06T08:18:02.509Z,15.54
2023-10-06T08:20:32.283Z,15.64
2023-10-06T08:23:00.922Z,15.74
2023-10-06T08:25:33.009Z,15.83
2023-10-06T08:28:08.351Z,15.79
2023-10-06T08:30:36.190Z,15.73
2023-10-06T08:33:04.179Z,15.76
2023-10-06T08:35:33.466Z,15.79
2023-10-06T08:38:02.092Z,15.95
2023-10-06T08:40:33.842Z,16.09
2023-10-06T08:43:02.113Z,16.16
2023-10-06T08:45:32.166Z,16.38
2023-10-06T08:48:04.335Z,16.65
2023-10-06T08:50:35.015Z,16.89
2023-10-06T08:53:05.937Z,17.09
2023-10-06T08:55:34.809Z,17.12
2023-10-06T08:58:04.885Z,17.26
2023-10-06T09:00:36.602Z,17.39
2023-10-06T09:03:09.141Z,17.54
2023-10-06T09:05:40.726Z,17.74
2023-10-06T09:08:10.308Z,17.75
2023-10-06T09:10:41.573Z,17.79
2023-10-06T09:13:12.466Z,17.86
2023-10-06T09:15:42.564Z,17.83
2023-10-06T09:18:22.901Z,17.94
2023-10-06T09:20:53.112Z,18.06
2023-10-06T09:23:34.624Z,18.14
2023-10-06T09:26:03.564Z,18.20
2023-10-06T09:28:32.437Z,18.24
2023-10-06T09:31:02.823Z,18.26
2023-10-06T09:33:33.745Z,18.33
2023-10-06T09:36:08.989Z,18.36
2023-10-06T09:38:37.883Z,18.52
2023-10-06T09:41:08.325Z,18.64
2023-10-06T09:43:39.605Z,18.86
2023-10-06T09:46:10.217Z,19.05
2023-10-06T09:48:39.043Z,19.24
2023-10-06T09:51:10.370Z,19.42
2023-10-06T09:53:39.727Z,19.61
2023-10-06T09:56:11.142Z,19.78
2023-10-06T09:58:41.364Z,19.89
2023-10-06T10:01:11.709Z,20.02
2023-10-06T10:03:40.255Z,20.11
2023-10-06T10:06:09.769Z,20.22
2023-10-06T10:08:42.228Z,20.40
2023-10-06T10:11:15.446Z,20.52
2023-10-06T10:14:16.288Z,20.60
2023-10-06T10:16:57.904Z,20.87
2023-10-06T10:19:29.478Z,20.89
2023-10-06T10:22:00.466Z,21.06
2023-10-06T10:27:00.565Z,21.33
2023-10-06T10:29:32.632Z,21.48
2023-10-06T10:32:05.738Z,21.55
2023-10-06T10:34:35.244Z,21.58
2023-10-06T10:37:21.680Z,21.68
2023-10-06T10:39:51.168Z,21.75
2023-10-06T10:42:20.041Z,21.88
2023-10-06T10:44:49.776Z,22.10
2023-10-06T10:47:18.489Z,22.12
2023-10-06T10:49:47.266Z,22.29
2023-10-06T10:52:16.903Z,22.47
2023-10-06T10:54:46.152Z,22.57
2023-10-06T10:57:19.899Z,22.45
2023-10-06T11:00:21.355Z,22.47
2023-10-06T11:03:05.848Z,22.58
2023-10-06T11:05:34.095Z,22.80
2023-10-06T11:08:05.161Z,22.97
2023-10-06T11:10:35.038Z,23.00
2023-10-06T11:13:21.126Z,23.06
2023-10-06T11:15:50.434Z,23.03
2023-10-06T11:18:19.693Z,23.16
2023-10-06T11:20:49.480Z,23.40
2023-10-06T11:23:18.733Z,23.45
2023-10-06T11:25:52.130Z,23.52
2023-10-06T11:28:21.084Z,23.61
2023-10-06T11:30:50.034Z,23.77
2023-10-06T11:33:21.227Z,23.69
2023-10-06T11:35:49.673Z,23.70
2023-10-06T11:38:17.835Z,23.84
2023-10-06T11:40:46.034Z,23.89
2023-10-06T11:43:18.029Z,24.01
2023-10-06T11:45:46.298Z,24.02
2023-10-06T11:48:30.311Z,24.05
2023-10-06T11:51:02.676Z,23.96
2023-10-06T11:53:30.835Z,24.12
2023-10-06T11:56:11.341Z,24.09
2023-10-06T11:58:42.467Z,24.14
2023-10-06T12:01:29.789Z,24.01
2023-10-06T12:04:01.845Z,23.93
2023-10-06T12:06:39.872Z,24.01
2023-10-06T12:09:09.470Z,24.11
2023-10-06T12:11:37.724Z,24.26
2023-10-06T12:14:07.001Z,24.21
2023-10-06T12:16:37.417Z,24.34
2023-10-06T12:19:07.062Z,24.44
2023-10-06T12:21:36.406Z,24.60
2023-10-06T12:24:04.881Z,24.83
2023-10-06T12:26:33.303Z,24.69
2023-10-06T12:29:03.338Z,24.68
2023-10-06T12:31:32.724Z,24.48
2023-10-06T12:34:05.037Z,24.40
2023-10-06T12:36:36.047Z,24.48
2023-10-06T12:39:06.140Z,24.52
2023-10-06T12:41:34.003Z,24.50
2023-10-06T12:44:06.788Z,24.54
2023-10-06T12:46:38.444Z,24.52
2023-10-06T12:49:08.335Z,24.51
2023-10-06T12:51:36.773Z,24.45
2023-10-06T12:54:05.345Z,24.37
2023-10-06T12:56:33.578Z,24.25
2023-10-06T12:59:01.393Z,24.32
2023-10-06T13:01:32.046Z,24.36
2023-10-06T13:04:01.990Z,24.38
2023-10-06T13:06:31.556Z,24.48
2023-10-06T13:09:03.035Z,24.45
2023-10-06T13:11:31.316Z,24.39
2023-10-06T13:13:59.340Z,24.52
2023-10-06T13:16:27.324Z,24.49
2023-10-06T13:18:55.252Z,24.28
2023-10-06T13:21:24.734Z,24.13
2023-10-06T13:23:52.999Z,24.02
2023-10-06T13:26:36.153Z,23.96
2023-10-06T13:29:09.394Z,23.54
2023-10-06T13:31:38.220Z,23.55
2023-10-06T13:34:08.735Z,23.46
2023-10-06T13:36:38.260Z,23.35
2023-10-06T13:39:10.782Z,23.32
2023-10-06T13:41:43.063Z,23.27
2023-10-06T13:44:11.622Z,23.24
2023-10-06T13:46:41.727Z,23.28
2023-10-06T13:49:09.957Z,23.22
2023-10-06T13:51:39.326Z,23.08
2023-10-06T13:54:08.000Z,22.95
2023-10-06T13:56:36.675Z,22.85
2023-10-06T13:59:05.988Z,22.60
2023-10-06T14:01:34.643Z,22.58
2023-10-06T14:04:04.454Z,22.52
2023-10-06T14:06:32.466Z,22.55
2023-10-06T14:09:01.639Z,22.59
2023-10-06T14:11:31.539Z,22.53
2023-10-06T14:14:00.105Z,22.57
2023-10-06T14:16:28.783Z,22.69
2023-10-06T14:18:57.881Z,22.62
2023-10-06T14:21:25.795Z,22.50
2023-10-06T14:23:56.103Z,22.48
2023-10-06T14:26:25.465Z,22.32
2023-10-06T14:28:53.581Z,22.23
2023-10-06T14:31:26.944Z,22.27
2023-10-06T14:34:20.098Z,22.28
2023-10-06T14:36:48.130Z,22.15
2023-10-06T14:39:33.889Z,22.22
2023-10-06T14:42:20.367Z,22.08
2023-10-06T14:45:05.687Z,21.90
2023-10-06T14:47:34.272Z,21.80
2023-10-06T14:50:02.477Z,21.70
2023-10-06T14:52:32.649Z,21.77
2023-10-06T14:55:01.739Z,21.52
2023-10-06T14:57:31.052Z,21.34
2023-10-06T14:59:59.020Z,21.31
2023-10-06T15:02:27.046Z,21.25
2023-10-06T15:04:55.448Z,21.21
2023-10-06T15:07:23.278Z,21.13
2023-10-06T15:09:52.543Z,20.99
2023-10-06T15:12:22.375Z,20.95
2023-10-06T15:14:52.134Z,20.89
2023-10-06T15:17:20.815Z,20.91
2023-10-06T15:19:49.094Z,20.94
2023-10-06T15:22:17.033Z,21.03
2023-10-06T15:24:44.903Z,21.09
2023-10-06T15:27:13.430Z,21.03
2023-10-06T15:29:42.989Z,21.03
2023-10-06T15:32:13.249Z,21.03
2023-10-06T15:34:41.696Z,20.95
2023-10-06T15:37:09.727Z,20.75
2023-10-06T15:39:37.740Z,20.63
2023-10-06T15:42:06.018Z,20.56
2023-10-06T15:44:34.191Z,20.44
2023-10-06T15:47:02.942Z,20.34
2023-10-06T15:49:33.489Z,20.34
2023-10-06T15:52:01.413Z,20.33
2023-10-06T15:54:29.352Z,20.29
2023-10-06T15:56:58.544Z,20.27
2023-10-06T15:59:31.016Z,20.26
2023-10-06T16:02:00.629Z,20.25
2023-10-06T16:04:28.937Z,20.25
2023-10-06T16:06:59.933Z,20.16
2023-10-06T16:09:28.073Z,20.09
2023-10-06T16:11:56.213Z,20.06
2023-10-06T16:14:24.248Z,19.94
2023-10-06T16:16:53.398Z,19.84
2023-10-06T16:19:21.670Z,19.68
2023-10-06T16:21:51.275Z,19.55
2023-10-06T16:24:20.517Z,19.42
2023-10-06T16:26:48.408Z,19.32
2023-10-06T16:29:17.535Z,19.23
2023-10-06T16:31:46.805Z,19.14
2023-10-06T16:34:14.806Z,19.01
2023-10-06T16:36:43.458Z,18.87
2023-10-06T16:39:20.278Z,18.73
2023-10-06T16:41:50.616Z,18.58
2023-10-06T16:44:21.439Z,18.43
2023-10-06T16:46:50.269Z,18.40
2023-10-06T16:49:18.286Z,18.35
2023-10-06T16:51:47.629Z,18.26
2023-10-06T16:54:16.535Z,18.13
2023-10-06T16:56:44.864Z,18.03
2023-10-06T16:59:15.481Z,17.92
2023-10-06T17:01:44.324Z,17.82
2023-10-06T17:04:16.044Z,17.77
2023-10-06T17:06:44.335Z,17.64
2023-10-06T17:09:15.193Z,17.46
2023-10-06T17:11:44.518Z,17.43
2023-10-06T17:14:14.139Z,17.35
2023-10-06T17:16:42.995Z,17.25
2023-10-06T17:19:12.535Z,17.15
2023-10-06T17:21:40.255Z,17.05
2023-10-06T17:24:11.821Z,16.95
2023-10-06T17:26:39.735Z,16.86
2023-10-06T17:29:08.351Z,16.76
2023-10-06T17:31:38.530Z,16.70
2023-10-06T17:34:06.745Z,16.59
2023-10-06T17:36:34.517Z,16.51
2023-10-06T17:39:04.112Z,16.43
2023-10-06T17:41:32.048Z,16.34
2023-10-06T17:43:59.868Z,16.25
2023-10-06T17:46:27.658Z,16.22
2023-10-06T17:48:58.199Z,16.11
2023-10-06T17:51:26.582Z,16.03
2023-10-06T17:53:54.535Z,15.98
2023-10-06T17:56:22.592Z,15.85
2023-10-06T17:58:51.236Z,15.76
2023-10-06T18:01:20.004Z,15.71
2023-10-06T18:03:49.004Z,15.58
2023-10-06T18:06:18.823Z,15.51
2023-10-06T18:08:46.926Z,15.47
2023-10-06T18:11:15.531Z,15.38
2023-10-06T18:13:43.613Z,15.37
2023-10-06T18:16:11.784Z,15.28
2023-10-06T18:18:41.368Z,15.27
2023-10-06T18:21:09.318Z,15.21
2023-10-06T18:23:38.545Z,15.19
2023-10-06T18:26:12.200Z,15.12
2023-10-06T18:28:40.731Z,15.07
2023-10-06T18:31:08.714Z,15.04
2023-10-06T18:33:37.072Z,15.02
2023-10-06T18:36:08.347Z,14.98
2023-10-06T18:38:36.166Z,14.90
2023-10-06T18:41:07.936Z,14.85
2023-10-06T18:43:35.745Z,14.85
2023-10-06T18:46:03.842Z,14.76
2023-10-06T18:48:31.854Z,14.71
2023-10-06T18:51:01.338Z,14.64
2023-10-06T18:53:30.386Z,14.62
2023-10-06T18:55:59.789Z,14.61
2023-10-06T18:58:30.598Z,14.53
2023-10-06T19:00:59.390Z,14.48
2023-10-06T19:03:28.302Z,14.46
2023-10-06T19:06:04.165Z,14.41
2023-10-06T19:08:36.924Z,14.37
2023-10-06T19:11:08.780Z,14.38
2023-10-06T19:13:37.967Z,14.39
2023-10-06T19:16:07.511Z,14.37
2023-10-06T19:18:35.513Z,14.35
2023-10-06T19:21:03.393Z,14.35
2023-10-06T19:23:32.015Z,14.39
2023-10-06T19:26:04.435Z,14.34
2023-10-06T19:28:32.463Z,14.31
2023-10-06T19:31:01.879Z,14.26
2023-10-06T19:33:29.896Z,14.29
2023-10-06T19:35:58.266Z,14.23
2023-10-06T19:38:26.649Z,14.21
2023-10-06T19:40:54.453Z,14.23
2023-10-06T19:43:22.571Z,14.25
2023-10-06T19:45:52.606Z,14.31
2023-10-06T19:48:23.038Z,14.36
2023-10-06T19:50:50.926Z,14.38
2023-10-06T19:53:19.332Z,14.39
2023-10-06T19:55:48.337Z,14.35
2023-10-06T19:58:17.915Z,14.34
2023-10-06T20:00:46.358Z,14.34
2023-10-06T20:03:14.339Z,14.27
2023-10-06T20:05:43.825Z,14.27
2023-10-06T20:08:11.669Z,14.20
2023-10-06T20:10:39.661Z,14.18
2023-10-06T20:13:08.551Z,14.13
2023-10-06T20:15:37.631Z,14.10
2023-10-06T20:18:07.364Z,14.08
2023-10-06T20:20:35.622Z,14.08
2023-10-06T20:23:05.719Z,14.12
2023-10-06T20:25:34.161Z,14.14
2023-10-06T20:28:03.978Z,14.12
2023-10-06T20:30:32.269Z,14.12
2023-10-06T20:33:00.839Z,14.13
2023-10-06T20:35:29.025Z,14.12
2023-10-06T20:37:57.220Z,14.09
2023-10-06T20:40:27.048Z,14.06
2023-10-06T20:42:56.755Z,14.03
2023-10-06T20:45:27.740Z,14.00
2023-10-06T20:47:56.309Z,13.96
2023-10-06T20:50:24.309Z,13.98
2023-10-06T20:52:53.064Z,13.97
2023-10-06T20:55:21.844Z,13.86
2023-10-06T20:57:51.215Z,13.73
2023-10-06T21:00:22.628Z,13.72
2023-10-06T21:02:50.996Z,13.65
2023-10-06T21:05:20.672Z,13.59
2023-10-06T21:07:49.343Z,13.55
2023-10-06T21:10:18.622Z,13.48
2023-10-06T21:12:46.709Z,13.42
2023-10-06T21:15:16.272Z,13.49
2023-10-06T21:17:44.655Z,13.43
2023-10-06T21:20:14.405Z,13.45
2023-10-06T21:22:42.246Z,13.43
2023-10-06T21:25:14.505Z,13.40
2023-10-06T21:27:43.221Z,13.40
2023-10-06T21:30:16.917Z,13.41
2023-10-06T21:32:47.066Z,13.40
2023-10-06T21:35:15.688Z,13.40
2023-10-06T21:37:45.593Z,13.41
2023-10-06T21:40:14.203Z,13.34
2023-10-06T21:42:42.326Z,13.26
2023-10-06T21:45:11.091Z,13.21
2023-10-06T21:47:39.145Z,13.17
2023-10-06T21:50:10.275Z,13.07
2023-10-06T21:52:38.472Z,12.99
2023-10-06T21:55:07.243Z,12.92
2023-10-06T21:57:36.232Z,12.86
2023-10-06T22:00:12.461Z,12.73
2023-10-06T22:02:40.682Z,12.65
2023-10-06T22:05:11.550Z,12.55
2023-10-06T22:07:41.067Z,12.48
2023-10-06T22:10:12.784Z,12.44
2023-10-06T22:12:40.809Z,12.34
2023-10-06T22:15:10.178Z,12.26
2023-10-06T22:17:38.388Z,12.12
2023-10-06T22:20:09.814Z,12.11
2023-10-06T22:22:39.856Z,12.09
2023-10-06T22:25:11.392Z,12.07
2023-10-06T22:27:41.897Z,12.00
2023-10-06T22:30:12.602Z,11.95
2023-10-06T22:32:41.605Z,11.89
2023-10-06T22:35:12.042Z,11.87
2023-10-06T22:37:41.717Z,11.86
2023-10-06T22:40:17.626Z,11.84
2023-10-06T22:42:48.640Z,11.78
2023-10-06T22:45:17.468Z,11.74
2023-10-06T22:47:49.336Z,11.76
2023-10-06T22:50:18.037Z,11.69
2023-10-06T22:52:48.138Z,11.65
2023-10-06T22:55:18.067Z,11.63
2023-10-06T22:57:46.336Z,11.56
2023-10-06T23:00:18.359Z,11.54
2023-10-06T23:02:48.243Z,11.51
2023-10-06T23:05:17.186Z,11.53
2023-10-06T23:07:45.962Z,11.55
2023-10-06T23:10:17.174Z,11.55
2023-10-06T23:12:45.601Z,11.54
2023-10-06T23:15:14.068Z,11.50
2023-10-06T23:17:42.582Z,11.44
2023-10-06T23:20:24.702Z,11.41
2023-10-06T23:22:56.026Z,11.50
2023-10-06T23:25:26.036Z,11.59
2023-10-06T23:27:54.130Z,11.67
2023-10-06T23:30:22.432Z,11.73
2023-10-06T23:32:51.378Z,11.73
2023-10-06T23:35:19.633Z,11.74
2023-10-06T23:37:51.204Z,11.76
2023-10-06T23:40:22.795Z,11.80
2023-10-06T23:42:53.716Z,11.79
2023-10-06T23:45:21.707Z,11.81
2023-10-06T23:47:50.563Z,11.82
2023-10-06T23:50:21.548Z,11.84
2023-10-06T23:52:52.764Z,11.79
2023-10-06T23:55:23.222Z,11.72
2023-10-06T23:57:55.208Z,11.62
